sensor_id;sensor_type;location;lat;lon;timestamp;pressure;altitude;pressure_sealevel;temperature;humidity
39487;BME280;25173;50.430;18.926;2023-04-07T00:01:21;98203.91;;;4.38;70.19
39487;BME280;25173;50.430;18.926;2023-04-07T00:04:22;98199.22;;;4.33;70.38
39487;BME280;25173;50.430;18.926;2023-04-07T00:07:23;98199.09;;;4.28;70.26
39487;BME280;25173;50.430;18.926;2023-04-07T00:10:24;98199.44;;;4.32;70.32
39487;BME280;25173;50.430;18.926;2023-04-07T00:13:25;98190.19;;;4.39;70.03
39487;BME280;25173;50.430;18.926;2023-04-07T00:16:25;98190.56;;;4.43;70.11
39487;BME280;25173;50.430;18.926;2023-04-07T00:19:26;98197.94;;;4.47;70.06
39487;BME280;25173;50.430;18.926;2023-04-07T00:22:27;98193.13;;;4.49;70.03
39487;BME280;25173;50.430;18.926;2023-04-07T00:25:27;98185.88;;;4.50;69.98
39487;BME280;25173;50.430;18.926;2023-04-07T00:28:28;98177.28;;;4.53;69.98
39487;BME280;25173;50.430;18.926;2023-04-07T00:31:28;98170.28;;;4.52;70.00
39487;BME280;25173;50.430;18.926;2023-04-07T00:34:29;98173.44;;;4.49;70.22
39487;BME280;25173;50.430;18.926;2023-04-07T00:37:30;98177.31;;;4.41;70.29
39487;BME280;25173;50.430;18.926;2023-04-07T00:40:30;98177.88;;;4.32;70.56
39487;BME280;25173;50.430;18.926;2023-04-07T00:43:31;98179.53;;;4.33;70.42
39487;BME280;25173;50.430;18.926;2023-04-07T00:46:32;98176.22;;;4.30;70.65
39487;BME280;25173;50.430;18.926;2023-04-07T00:49:32;98170.72;;;4.25;70.68
39487;BME280;25173;50.430;18.926;2023-04-07T00:52:34;98170.84;;;4.30;70.74
39487;BME280;25173;50.430;18.926;2023-04-07T00:55:35;98176.00;;;4.32;70.71
39487;BME280;25173;50.430;18.926;2023-04-07T00:58:36;98175.28;;;4.25;70.95
39487;BME280;25173;50.430;18.926;2023-04-07T01:01:43;98160.88;;;4.19;71.55
39487;BME280;25173;50.430;18.926;2023-04-07T01:04:46;98155.38;;;4.14;71.46
39487;BME280;25173;50.430;18.926;2023-04-07T01:08:09;98151.03;;;4.13;72.16
39487;BME280;25173;50.430;18.926;2023-04-07T01:11:22;98148.09;;;4.03;72.10
39487;BME280;25173;50.430;18.926;2023-04-07T01:14:28;98151.38;;;4.05;71.91
39487;BME280;25173;50.430;18.926;2023-04-07T01:17:44;98143.31;;;4.05;72.03
39487;BME280;25173;50.430;18.926;2023-04-07T01:20:50;98145.63;;;4.02;72.18
39487;BME280;25173;50.430;18.926;2023-04-07T01:27:24;98141.19;;;4.07;72.06
39487;BME280;25173;50.430;18.926;2023-04-07T01:30:34;98150.44;;;4.11;72.00
39487;BME280;25173;50.430;18.926;2023-04-07T01:33:38;98147.53;;;4.13;72.16
39487;BME280;25173;50.430;18.926;2023-04-07T01:36:44;98146.69;;;4.12;72.18
39487;BME280;25173;50.430;18.926;2023-04-07T01:39:45;98146.69;;;4.12;72.00
39487;BME280;25173;50.430;18.926;2023-04-07T01:42:47;98143.06;;;4.18;72.04
39487;BME280;25173;50.430;18.926;2023-04-07T01:45:48;98136.16;;;4.22;71.99
39487;BME280;25173;50.430;18.926;2023-04-07T01:48:50;98114.94;;;4.26;71.73
39487;BME280;25173;50.430;18.926;2023-04-07T01:51:51;98123.50;;;4.23;71.79
39487;BME280;25173;50.430;18.926;2023-04-07T01:54:53;98130.53;;;4.24;72.03
39487;BME280;25173;50.430;18.926;2023-04-07T01:57:54;98132.88;;;4.20;71.94
39487;BME280;25173;50.430;18.926;2023-04-07T02:00:56;98127.59;;;4.25;71.90
39487;BME280;25173;50.430;18.926;2023-04-07T02:07:26;98122.78;;;4.39;71.69
39487;BME280;25173;50.430;18.926;2023-04-07T02:10:32;98125.84;;;4.43;71.43
39487;BME280;25173;50.430;18.926;2023-04-07T02:13:36;98128.41;;;4.38;71.76
39487;BME280;25173;50.430;18.926;2023-04-07T02:16:38;98120.00;;;4.34;71.80
39487;BME280;25173;50.430;18.926;2023-04-07T02:19:41;98125.28;;;4.29;71.88
39487;BME280;25173;50.430;18.926;2023-04-07T02:22:43;98121.38;;;4.25;72.20
39487;BME280;25173;50.430;18.926;2023-04-07T02:25:45;98119.75;;;4.12;72.26
39487;BME280;25173;50.430;18.926;2023-04-07T02:28:46;98127.13;;;4.05;72.47
39487;BME280;25173;50.430;18.926;2023-04-07T02:31:46;98127.72;;;4.07;72.71
39487;BME280;25173;50.430;18.926;2023-04-07T02:34:47;98131.94;;;4.03;72.85
39487;BME280;25173;50.430;18.926;2023-04-07T02:37:48;98134.41;;;4.05;72.69
39487;BME280;25173;50.430;18.926;2023-04-07T02:40:48;98138.03;;;4.10;72.73
39487;BME280;25173;50.430;18.926;2023-04-07T02:43:49;98128.06;;;4.11;72.54
39487;BME280;25173;50.430;18.926;2023-04-07T02:46:50;98129.81;;;4.05;72.99
39487;BME280;25173;50.430;18.926;2023-04-07T02:49:50;98127.34;;;4.04;72.95
39487;BME280;25173;50.430;18.926;2023-04-07T02:52:51;98125.00;;;3.96;73.06
39487;BME280;25173;50.430;18.926;2023-04-07T02:55:51;98120.00;;;3.99;73.07
39487;BME280;25173;50.430;18.926;2023-04-07T02:58:52;98110.59;;;4.02;73.09
39487;BME280;25173;50.430;18.926;2023-04-07T03:01:54;98119.50;;;4.02;73.12
39487;BME280;25173;50.430;18.926;2023-04-07T03:04:55;98115.41;;;4.00;72.92
39487;BME280;25173;50.430;18.926;2023-04-07T03:07:59;98110.03;;;4.00;73.18
39487;BME280;25173;50.430;18.926;2023-04-07T03:11:00;98115.31;;;4.06;73.21
39487;BME280;25173;50.430;18.926;2023-04-07T03:14:03;98116.34;;;4.05;73.16
39487;BME280;25173;50.430;18.926;2023-04-07T03:17:05;98121.84;;;4.10;72.91
39487;BME280;25173;50.430;18.926;2023-04-07T03:20:06;98124.44;;;4.05;73.02
39487;BME280;25173;50.430;18.926;2023-04-07T03:23:10;98121.59;;;4.00;73.33
39487;BME280;25173;50.430;18.926;2023-04-07T03:26:10;98115.88;;;3.97;73.14
39487;BME280;25173;50.430;18.926;2023-04-07T03:29:12;98112.13;;;3.98;73.39
39487;BME280;25173;50.430;18.926;2023-04-07T03:32:15;98109.44;;;3.98;73.33
39487;BME280;25173;50.430;18.926;2023-04-07T03:35:15;98100.28;;;3.87;73.89
39487;BME280;25173;50.430;18.926;2023-04-07T03:38:18;98102.75;;;3.88;73.89
39487;BME280;25173;50.430;18.926;2023-04-07T03:41:19;98098.88;;;3.96;73.58
39487;BME280;25173;50.430;18.926;2023-04-07T03:44:21;98097.94;;;4.02;73.57
39487;BME280;25173;50.430;18.926;2023-04-07T03:47:22;98099.59;;;4.03;73.49
39487;BME280;25173;50.430;18.926;2023-04-07T03:50:28;98096.91;;;4.03;73.67
39487;BME280;25173;50.430;18.926;2023-04-07T03:53:43;98093.75;;;4.06;73.68
39487;BME280;25173;50.430;18.926;2023-04-07T03:56:58;98107.56;;;4.10;73.69
39487;BME280;25173;50.430;18.926;2023-04-07T04:00:00;98111.06;;;4.10;73.56
39487;BME280;25173;50.430;18.926;2023-04-07T04:03:04;98104.88;;;4.10;73.39
39487;BME280;25173;50.430;18.926;2023-04-07T04:06:07;98101.13;;;4.11;73.37
39487;BME280;25173;50.430;18.926;2023-04-07T04:09:07;98105.94;;;4.20;73.17
39487;BME280;25173;50.430;18.926;2023-04-07T04:12:12;98117.19;;;4.29;73.11
39487;BME280;25173;50.430;18.926;2023-04-07T04:15:22;98111.91;;;4.34;72.83
39487;BME280;25173;50.430;18.926;2023-04-07T04:18:24;98110.72;;;4.30;72.94
39487;BME280;25173;50.430;18.926;2023-04-07T04:21:27;98107.69;;;4.26;72.74
39487;BME280;25173;50.430;18.926;2023-04-07T04:24:28;98105.00;;;4.26;72.87
39487;BME280;25173;50.430;18.926;2023-04-07T04:27:33;98110.84;;;4.23;74.29
39487;BME280;25173;50.430;18.926;2023-04-07T04:30:43;98111.66;;;4.24;73.07
39487;BME280;25173;50.430;18.926;2023-04-07T04:33:44;98120.56;;;4.24;72.77
39487;BME280;25173;50.430;18.926;2023-04-07T04:36:44;98114.72;;;4.27;72.90
39487;BME280;25173;50.430;18.926;2023-04-07T04:39:46;98112.03;;;4.27;72.72
39487;BME280;25173;50.430;18.926;2023-04-07T04:42:49;98121.28;;;4.20;72.82
39487;BME280;25173;50.430;18.926;2023-04-07T04:45:54;98113.41;;;4.18;73.12
39487;BME280;25173;50.430;18.926;2023-04-07T04:48:59;98106.38;;;4.17;73.08
39487;BME280;25173;50.430;18.926;2023-04-07T04:52:00;98115.06;;;4.19;73.26
39487;BME280;25173;50.430;18.926;2023-04-07T04:55:02;98118.47;;;4.15;73.40
39487;BME280;25173;50.430;18.926;2023-04-07T04:58:03;98120.47;;;4.19;73.48
39487;BME280;25173;50.430;18.926;2023-04-07T05:01:16;98121.97;;;4.27;73.32
39487;BME280;25173;50.430;18.926;2023-04-07T05:04:25;98125.50;;;4.27;73.13
39487;BME280;25173;50.430;18.926;2023-04-07T05:07:35;98123.38;;;4.18;73.36
39487;BME280;25173;50.430;18.926;2023-04-07T05:10:38;98116.47;;;4.10;73.53
39487;BME280;25173;50.430;18.926;2023-04-07T05:13:42;98121.41;;;4.13;73.59
39487;BME280;25173;50.430;18.926;2023-04-07T05:16:45;98123.03;;;4.14;73.64
39487;BME280;25173;50.430;18.926;2023-04-07T05:19:51;98118.81;;;4.18;73.46
39487;BME280;25173;50.430;18.926;2023-04-07T05:23:04;98118.91;;;4.23;73.64
39487;BME280;25173;50.430;18.926;2023-04-07T05:26:07;98123.16;;;4.31;73.42
39487;BME280;25173;50.430;18.926;2023-04-07T05:29:14;98120.78;;;4.23;73.40
39487;BME280;25173;50.430;18.926;2023-04-07T05:32:15;98112.03;;;4.27;73.46
39487;BME280;25173;50.430;18.926;2023-04-07T05:35:16;98127.25;;;4.34;73.51
39487;BME280;25173;50.430;18.926;2023-04-07T05:38:24;98120.47;;;4.43;73.51
39487;BME280;25173;50.430;18.926;2023-04-07T05:41:29;98128.66;;;4.48;73.51
39487;BME280;25173;50.430;18.926;2023-04-07T05:44:30;98137.19;;;4.45;73.32
39487;BME280;25173;50.430;18.926;2023-04-07T05:47:34;98130.66;;;4.41;73.23
39487;BME280;25173;50.430;18.926;2023-04-07T05:50:38;98137.78;;;4.47;73.21
39487;BME280;25173;50.430;18.926;2023-04-07T05:53:42;98123.63;;;4.51;73.10
39487;BME280;25173;50.430;18.926;2023-04-07T05:56:43;98121.75;;;4.52;73.28
39487;BME280;25173;50.430;18.926;2023-04-07T05:59:46;98117.41;;;4.51;73.30
39487;BME280;25173;50.430;18.926;2023-04-07T06:02:47;98118.47;;;4.50;73.09
39487;BME280;25173;50.430;18.926;2023-04-07T06:05:52;98110.81;;;4.47;73.38
39487;BME280;25173;50.430;18.926;2023-04-07T06:08:54;98121.41;;;4.37;73.22
39487;BME280;25173;50.430;18.926;2023-04-07T06:11:57;98128.06;;;4.34;73.49
39487;BME280;25173;50.430;18.926;2023-04-07T06:14:58;98128.31;;;4.44;73.70
39487;BME280;25173;50.430;18.926;2023-04-07T06:17:59;98128.63;;;4.59;73.65
39487;BME280;25173;50.430;18.926;2023-04-07T06:20:59;98131.41;;;4.76;73.32
39487;BME280;25173;50.430;18.926;2023-04-07T06:24:00;98126.25;;;4.86;73.09
39487;BME280;25173;50.430;18.926;2023-04-07T06:27:01;98128.59;;;4.94;72.76
39487;BME280;25173;50.430;18.926;2023-04-07T06:30:03;98128.09;;;4.97;72.48
39487;BME280;25173;50.430;18.926;2023-04-07T06:33:04;98126.78;;;5.00;72.65
39487;BME280;25173;50.430;18.926;2023-04-07T06:36:05;98119.97;;;4.97;72.49
39487;BME280;25173;50.430;18.926;2023-04-07T06:39:05;98113.88;;;5.02;72.68
39487;BME280;25173;50.430;18.926;2023-04-07T06:42:06;98117.16;;;5.04;72.33
39487;BME280;25173;50.430;18.926;2023-04-07T06:45:11;98121.25;;;5.06;72.55
39487;BME280;25173;50.430;18.926;2023-04-07T06:48:11;98124.31;;;5.10;72.20
39487;BME280;25173;50.430;18.926;2023-04-07T06:51:12;98121.25;;;5.06;72.37
39487;BME280;25173;50.430;18.926;2023-04-07T06:54:12;98120.19;;;5.07;72.23
39487;BME280;25173;50.430;18.926;2023-04-07T06:57:15;98115.78;;;5.01;72.17
39487;BME280;25173;50.430;18.926;2023-04-07T07:00:15;98129.25;;;5.01;72.37
39487;BME280;25173;50.430;18.926;2023-04-07T07:03:16;98131.47;;;5.04;72.37
39487;BME280;25173;50.430;18.926;2023-04-07T07:06:17;98121.75;;;5.03;72.25
39487;BME280;25173;50.430;18.926;2023-04-07T07:09:17;98121.41;;;5.00;72.43
39487;BME280;25173;50.430;18.926;2023-04-07T07:12:18;98121.88;;;4.97;72.52
39487;BME280;25173;50.430;18.926;2023-04-07T07:15:18;98112.84;;;5.03;72.57
39487;BME280;25173;50.430;18.926;2023-04-07T07:18:19;98124.53;;;5.08;72.45
39487;BME280;25173;50.430;18.926;2023-04-07T07:21:20;98127.84;;;5.11;72.55
39487;BME280;25173;50.430;18.926;2023-04-07T07:24:20;98129.44;;;5.12;72.53
39487;BME280;25173;50.430;18.926;2023-04-07T07:27:21;98128.50;;;5.18;72.43
39487;BME280;25173;50.430;18.926;2023-04-07T07:30:23;98131.38;;;5.28;72.64
39487;BME280;25173;50.430;18.926;2023-04-07T07:33:30;98138.53;;;5.34;72.62
39487;BME280;25173;50.430;18.926;2023-04-07T07:36:35;98136.16;;;5.37;72.32
39487;BME280;25173;50.430;18.926;2023-04-07T07:39:44;98139.69;;;5.38;72.26
39487;BME280;25173;50.430;18.926;2023-04-07T07:42:45;98142.84;;;5.46;72.20
39487;BME280;25173;50.430;18.926;2023-04-07T07:45:46;98142.06;;;5.63;72.45
39487;BME280;25173;50.430;18.926;2023-04-07T07:48:46;98150.31;;;5.73;72.26
39487;BME280;25173;50.430;18.926;2023-04-07T07:51:47;98150.75;;;5.81;72.19
39487;BME280;25173;50.430;18.926;2023-04-07T07:54:49;98155.22;;;5.88;71.86
39487;BME280;25173;50.430;18.926;2023-04-07T07:57:50;98154.34;;;5.99;71.76
39487;BME280;25173;50.430;18.926;2023-04-07T08:00:50;98163.91;;;6.06;71.52
39487;BME280;25173;50.430;18.926;2023-04-07T08:03:51;98166.69;;;6.11;71.36
39487;BME280;25173;50.430;18.926;2023-04-07T08:06:52;98169.16;;;6.13;71.13
39487;BME280;25173;50.430;18.926;2023-04-07T08:09:52;98161.78;;;6.08;70.84
39487;BME280;25173;50.430;18.926;2023-04-07T08:12:53;98158.16;;;6.03;70.71
39487;BME280;25173;50.430;18.926;2023-04-07T08:15:53;98160.44;;;5.94;70.90
39487;BME280;25173;50.430;18.926;2023-04-07T08:18:54;98156.63;;;5.90;71.23
39487;BME280;25173;50.430;18.926;2023-04-07T08:21:55;98150.69;;;5.93;71.31
39487;BME280;25173;50.430;18.926;2023-04-07T08:24:55;98152.69;;;5.98;71.28
39487;BME280;25173;50.430;18.926;2023-04-07T08:27:56;98131.78;;;5.93;71.32
39487;BME280;25173;50.430;18.926;2023-04-07T08:30:56;98139.19;;;5.86;71.32
39487;BME280;25173;50.430;18.926;2023-04-07T08:33:57;98135.81;;;5.91;71.66
39487;BME280;25173;50.430;18.926;2023-04-07T08:36:58;98139.88;;;5.93;71.33
39487;BME280;25173;50.430;18.926;2023-04-07T08:40:00;98137.78;;;5.95;71.36
39487;BME280;25173;50.430;18.926;2023-04-07T08:43:07;98146.38;;;5.92;71.33
39487;BME280;25173;50.430;18.926;2023-04-07T08:46:08;98153.53;;;5.86;71.45
39487;BME280;25173;50.430;18.926;2023-04-07T08:49:10;98154.59;;;5.85;71.45
39487;BME280;25173;50.430;18.926;2023-04-07T08:52:13;98139.47;;;5.84;71.56
39487;BME280;25173;50.430;18.926;2023-04-07T08:55:15;98149.63;;;5.77;71.37
39487;BME280;25173;50.430;18.926;2023-04-07T08:58:17;98138.63;;;5.67;71.90
39487;BME280;25173;50.430;18.926;2023-04-07T09:01:19;98140.19;;;5.80;72.14
39487;BME280;25173;50.430;18.926;2023-04-07T09:04:21;98143.47;;;5.82;71.98
39487;BME280;25173;50.430;18.926;2023-04-07T09:07:22;98142.72;;;5.86;71.98
39487;BME280;25173;50.430;18.926;2023-04-07T09:10:23;98139.00;;;5.88;71.83
39487;BME280;25173;50.430;18.926;2023-04-07T09:13:24;98134.88;;;5.85;71.91
39487;BME280;25173;50.430;18.926;2023-04-07T09:16:27;98139.00;;;5.88;72.17
39487;BME280;25173;50.430;18.926;2023-04-07T09:19:29;98131.91;;;5.86;71.99
39487;BME280;25173;50.430;18.926;2023-04-07T09:22:38;98143.47;;;5.82;72.26
39487;BME280;25173;50.430;18.926;2023-04-07T09:25:39;98145.09;;;5.83;72.08
39487;BME280;25173;50.430;18.926;2023-04-07T09:28:40;98141.41;;;5.72;72.19
39487;BME280;25173;50.430;18.926;2023-04-07T09:31:48;98128.94;;;5.71;72.62
39487;BME280;25173;50.430;18.926;2023-04-07T09:34:57;98133.63;;;5.76;72.58
39487;BME280;25173;50.430;18.926;2023-04-07T09:38:05;98124.53;;;5.65;72.73
39487;BME280;25173;50.430;18.926;2023-04-07T09:41:13;98131.97;;;5.58;73.38
39487;BME280;25173;50.430;18.926;2023-04-07T09:44:15;98123.28;;;5.56;73.37
39487;BME280;25173;50.430;18.926;2023-04-07T09:47:16;98133.31;;;5.44;73.66
39487;BME280;25173;50.430;18.926;2023-04-07T09:50:30;98119.06;;;5.32;74.66
39487;BME280;25173;50.430;18.926;2023-04-07T09:53:48;98122.31;;;5.34;75.20
39487;BME280;25173;50.430;18.926;2023-04-07T09:56:49;98127.84;;;5.39;75.56
39487;BME280;25173;50.430;18.926;2023-04-07T09:59:50;98119.22;;;5.42;75.43
39487;BME280;25173;50.430;18.926;2023-04-07T10:02:53;98114.41;;;5.44;75.23
39487;BME280;25173;50.430;18.926;2023-04-07T10:05:54;98112.78;;;5.43;75.06
39487;BME280;25173;50.430;18.926;2023-04-07T10:08:55;98114.56;;;5.37;75.39
39487;BME280;25173;50.430;18.926;2023-04-07T10:11:57;98112.19;;;5.41;75.51
39487;BME280;25173;50.430;18.926;2023-04-07T10:14:59;98125.06;;;5.51;75.44
39487;BME280;25173;50.430;18.926;2023-04-07T10:18:04;98119.81;;;5.44;75.16
39487;BME280;25173;50.430;18.926;2023-04-07T10:21:06;98106.31;;;5.44;76.66
39487;BME280;25173;50.430;18.926;2023-04-07T10:27:56;98114.25;;;5.51;75.64
39487;BME280;25173;50.430;18.926;2023-04-07T10:30:59;98112.72;;;5.55;75.26
39487;BME280;25173;50.430;18.926;2023-04-07T10:34:01;98121.34;;;5.68;75.39
39487;BME280;25173;50.430;18.926;2023-04-07T10:37:16;98121.09;;;5.70;74.94
39487;BME280;25173;50.430;18.926;2023-04-07T10:40:26;98124.53;;;5.65;75.30
39487;BME280;25173;50.430;18.926;2023-04-07T10:43:38;98124.03;;;5.68;75.21
39487;BME280;25173;50.430;18.926;2023-04-07T10:50:20;98117.31;;;5.71;75.20
39487;BME280;25173;50.430;18.926;2023-04-07T10:53:21;98119.84;;;5.61;75.52
39487;BME280;25173;50.430;18.926;2023-04-07T10:56:23;98128.69;;;5.56;75.96
39487;BME280;25173;50.430;18.926;2023-04-07T10:59:26;98125.88;;;5.51;76.00
39487;BME280;25173;50.430;18.926;2023-04-07T11:05:27;98116.03;;;5.73;76.20
39487;BME280;25173;50.430;18.926;2023-04-07T11:08:42;98129.06;;;5.76;75.97
39487;BME280;25173;50.430;18.926;2023-04-07T11:11:42;98116.84;;;5.74;76.48
39487;BME280;25173;50.430;18.926;2023-04-07T11:14:45;98120.13;;;5.76;76.93
39487;BME280;25173;50.430;18.926;2023-04-07T11:17:46;98121.25;;;5.80;77.15
39487;BME280;25173;50.430;18.926;2023-04-07T11:20:51;98116.53;;;5.87;77.07
39487;BME280;25173;50.430;18.926;2023-04-07T11:23:52;98108.91;;;5.84;78.33
39487;BME280;25173;50.430;18.926;2023-04-07T11:26:53;98108.78;;;5.91;77.53
39487;BME280;25173;50.430;18.926;2023-04-07T11:29:55;98107.38;;;6.05;76.92
39487;BME280;25173;50.430;18.926;2023-04-07T11:32:56;98109.50;;;6.03;76.33
39487;BME280;25173;50.430;18.926;2023-04-07T11:35:58;98105.09;;;5.97;76.39
39487;BME280;25173;50.430;18.926;2023-04-07T11:39:00;98102.97;;;5.99;76.47
39487;BME280;25173;50.430;18.926;2023-04-07T11:42:04;98113.09;;;6.08;78.00
39487;BME280;25173;50.430;18.926;2023-04-07T11:45:15;98107.06;;;6.18;76.65
39487;BME280;25173;50.430;18.926;2023-04-07T11:48:29;98101.41;;;6.19;76.08
39487;BME280;25173;50.430;18.926;2023-04-07T11:51:30;98104.28;;;6.13;76.13
39487;BME280;25173;50.430;18.926;2023-04-07T11:54:45;98105.09;;;5.97;76.75
39487;BME280;25173;50.430;18.926;2023-04-07T11:57:46;98107.16;;;5.90;78.96
39487;BME280;25173;50.430;18.926;2023-04-07T12:01:02;98110.81;;;5.83;77.62
39487;BME280;25173;50.430;18.926;2023-04-07T12:04:05;98109.41;;;5.81;77.67
39487;BME280;25173;50.430;18.926;2023-04-07T12:07:07;98105.41;;;5.83;77.97
39487;BME280;25173;50.430;18.926;2023-04-07T12:10:22;98099.34;;;5.93;77.74
39487;BME280;25173;50.430;18.926;2023-04-07T12:13:22;98095.41;;;6.01;77.56
39487;BME280;25173;50.430;18.926;2023-04-07T12:16:23;98094.44;;;6.07;77.31
39487;BME280;25173;50.430;18.926;2023-04-07T12:19:25;98093.38;;;6.08;77.03
39487;BME280;25173;50.430;18.926;2023-04-07T12:22:27;98097.22;;;6.12;77.11
39487;BME280;25173;50.430;18.926;2023-04-07T12:25:27;98110.41;;;6.25;77.10
39487;BME280;25173;50.430;18.926;2023-04-07T12:28:28;98112.09;;;6.31;76.94
39487;BME280;25173;50.430;18.926;2023-04-07T12:31:29;98112.53;;;6.23;76.38
39487;BME280;25173;50.430;18.926;2023-04-07T12:34:31;98123.50;;;6.16;76.40
39487;BME280;25173;50.430;18.926;2023-04-07T12:37:32;98114.75;;;6.26;77.25
39487;BME280;25173;50.430;18.926;2023-04-07T12:40:49;98114.16;;;6.41;76.93
39487;BME280;25173;50.430;18.926;2023-04-07T12:43:51;98105.13;;;6.52;77.00
39487;BME280;25173;50.430;18.926;2023-04-07T12:46:52;98096.75;;;6.53;76.42
39487;BME280;25173;50.430;18.926;2023-04-07T12:49:52;98103.78;;;6.54;76.67
39487;BME280;25173;50.430;18.926;2023-04-07T12:52:53;98105.50;;;6.60;77.03
39487;BME280;25173;50.430;18.926;2023-04-07T12:55:54;98107.13;;;6.61;77.52
39487;BME280;25173;50.430;18.926;2023-04-07T12:58:59;98105.44;;;6.55;77.40
39487;BME280;25173;50.430;18.926;2023-04-07T13:02:00;98103.84;;;6.59;77.80
39487;BME280;25173;50.430;18.926;2023-04-07T13:05:01;98113.44;;;6.67;77.67
39487;BME280;25173;50.430;18.926;2023-04-07T13:08:03;98108.34;;;6.71;77.49
39487;BME280;25173;50.430;18.926;2023-04-07T13:11:04;98103.19;;;6.69;77.28
39487;BME280;25173;50.430;18.926;2023-04-07T13:14:05;98105.63;;;6.71;77.46
39487;BME280;25173;50.430;18.926;2023-04-07T13:17:07;98116.94;;;6.68;77.07
39487;BME280;25173;50.430;18.926;2023-04-07T13:20:08;98113.38;;;6.62;77.03
39487;BME280;25173;50.430;18.926;2023-04-07T13:23:08;98114.69;;;6.59;77.28
39487;BME280;25173;50.430;18.926;2023-04-07T13:26:09;98121.53;;;6.67;77.49
39487;BME280;25173;50.430;18.926;2023-04-07T13:29:10;98111.28;;;6.69;77.27
39487;BME280;25173;50.430;18.926;2023-04-07T13:32:11;98114.16;;;6.79;77.49
39487;BME280;25173;50.430;18.926;2023-04-07T13:35:15;98121.41;;;6.95;77.41
39487;BME280;25173;50.430;18.926;2023-04-07T13:38:16;98120.16;;;7.03;76.94
39487;BME280;25173;50.430;18.926;2023-04-07T13:41:17;98117.94;;;7.00;76.65
39487;BME280;25173;50.430;18.926;2023-04-07T13:44:18;98113.47;;;6.89;76.42
39487;BME280;25173;50.430;18.926;2023-04-07T13:47:18;98116.66;;;6.86;76.62
39487;BME280;25173;50.430;18.926;2023-04-07T13:50:19;98117.50;;;6.86;76.87
39487;BME280;25173;50.430;18.926;2023-04-07T13:53:20;98126.25;;;6.93;76.73
39487;BME280;25173;50.430;18.926;2023-04-07T13:56:21;98121.06;;;6.92;76.43
39487;BME280;25173;50.430;18.926;2023-04-07T13:59:21;98121.41;;;6.95;76.82
39487;BME280;25173;50.430;18.926;2023-04-07T14:02:22;98120.06;;;6.98;76.62
39487;BME280;25173;50.430;18.926;2023-04-07T14:05:24;98123.34;;;7.00;76.81
39487;BME280;25173;50.430;18.926;2023-04-07T14:08:25;98122.22;;;6.96;76.34
39487;BME280;25173;50.430;18.926;2023-04-07T14:11:25;98124.53;;;6.87;76.39
39487;BME280;25173;50.430;18.926;2023-04-07T14:14:26;98127.75;;;6.84;76.83
39487;BME280;25173;50.430;18.926;2023-04-07T14:17:27;98122.38;;;6.89;76.70
39487;BME280;25173;50.430;18.926;2023-04-07T14:20:27;98120.50;;;6.90;76.83
39487;BME280;25173;50.430;18.926;2023-04-07T14:23:28;98124.34;;;6.94;76.57
39487;BME280;25173;50.430;18.926;2023-04-07T14:26:29;98125.41;;;6.93;76.32
39487;BME280;25173;50.430;18.926;2023-04-07T14:29:29;98120.59;;;6.95;76.73
39487;BME280;25173;50.430;18.926;2023-04-07T14:32:31;98125.28;;;7.05;76.75
39487;BME280;25173;50.430;18.926;2023-04-07T14:35:35;98121.06;;;7.14;76.46
39487;BME280;25173;50.430;18.926;2023-04-07T14:38:36;98125.66;;;7.13;76.15
39487;BME280;25173;50.430;18.926;2023-04-07T14:41:37;98117.66;;;7.23;76.44
39487;BME280;25173;50.430;18.926;2023-04-07T14:44:38;98118.41;;;7.40;76.45
39487;BME280;25173;50.430;18.926;2023-04-07T14:47:40;98114.75;;;7.57;76.42
39487;BME280;25173;50.430;18.926;2023-04-07T14:50:40;98111.66;;;7.70;76.05
39487;BME280;25173;50.430;18.926;2023-04-07T14:53:41;98112.00;;;7.78;75.40
39487;BME280;25173;50.430;18.926;2023-04-07T14:56:42;98117.22;;;7.85;75.39
39487;BME280;25173;50.430;18.926;2023-04-07T14:59:45;98110.44;;;7.88;75.09
39487;BME280;25173;50.430;18.926;2023-04-07T15:02:46;98115.38;;;7.91;75.02
39487;BME280;25173;50.430;18.926;2023-04-07T15:05:46;98107.75;;;7.88;74.66
39487;BME280;25173;50.430;18.926;2023-04-07T15:08:47;98116.41;;;7.85;74.79
39487;BME280;25173;50.430;18.926;2023-04-07T15:11:48;98115.13;;;7.92;74.88
39487;BME280;25173;50.430;18.926;2023-04-07T15:14:50;98117.03;;;7.97;74.85
39487;BME280;25173;50.430;18.926;2023-04-07T15:17:51;98123.31;;;8.02;74.97
39487;BME280;25173;50.430;18.926;2023-04-07T15:20:52;98118.25;;;8.11;74.80
39487;BME280;25173;50.430;18.926;2023-04-07T15:23:52;98116.94;;;8.18;74.43
39487;BME280;25173;50.430;18.926;2023-04-07T15:26:53;98121.56;;;8.18;74.33
39487;BME280;25173;50.430;18.926;2023-04-07T15:29:54;98121.03;;;8.21;74.34
39487;BME280;25173;50.430;18.926;2023-04-07T15:32:56;98118.63;;;8.25;74.18
39487;BME280;25173;50.430;18.926;2023-04-07T15:35:57;98121.69;;;8.33;74.46
39487;BME280;25173;50.430;18.926;2023-04-07T15:39:03;98113.91;;;8.47;74.39
39487;BME280;25173;50.430;18.926;2023-04-07T15:42:04;98114.56;;;8.59;74.41
39487;BME280;25173;50.430;18.926;2023-04-07T15:45:09;98119.22;;;8.69;73.73
39487;BME280;25173;50.430;18.926;2023-04-07T15:48:11;98114.03;;;8.67;73.52
39487;BME280;25173;50.430;18.926;2023-04-07T15:51:11;98123.56;;;8.70;73.36
39487;BME280;25173;50.430;18.926;2023-04-07T15:54:12;98126.59;;;8.73;73.49
39487;BME280;25173;50.430;18.926;2023-04-07T15:57:13;98124.69;;;8.74;73.28
39487;BME280;25173;50.430;18.926;2023-04-07T16:00:16;98118.38;;;8.63;72.82
39487;BME280;25173;50.430;18.926;2023-04-07T16:03:17;98123.50;;;8.60;73.13
39487;BME280;25173;50.430;18.926;2023-04-07T16:06:18;98123.72;;;8.53;72.81
39487;BME280;25173;50.430;18.926;2023-04-07T16:09:19;98133.16;;;8.45;72.64
39487;BME280;25173;50.430;18.926;2023-04-07T16:12:19;98132.91;;;8.47;73.37
39487;BME280;25173;50.430;18.926;2023-04-07T16:15:21;98130.78;;;8.54;73.50
39487;BME280;25173;50.430;18.926;2023-04-07T16:18:22;98137.84;;;8.55;73.25
39487;BME280;25173;50.430;18.926;2023-04-07T16:21:24;98140.56;;;8.50;72.70
39487;BME280;25173;50.430;18.926;2023-04-07T16:24:26;98142.66;;;8.43;73.16